Time;durP1;ratioP1;P1;durP2;ratioP2;P2;SDS_P1;SDS_P2;PMS_P1;PMS_P2;Temp;Humidity;BMP_temperature;BMP_pressure;BME280_temperature;BME280_humidity;BME280_pressure;Samples;Min_cycle;Max_cycle;Signal;HPM_P1;HPM_P2
2023/11/05 00:02:05;;;;;;;0.77;0.50;;;11.30;99.90;;;;;;6239722;28;20033;-75
2023/11/05 00:05:08;;;;;;;1.00;0.30;;;11.30;99.90;;;;;;6247652;28;20041;-76
2023/11/05 00:08:10;;;;;;;0.65;0.65;;;11.40;99.90;;;;;;6247926;28;20060;-75
2023/11/05 00:11:13;;;;;;;0.73;0.38;;;11.30;99.90;;;;;;6247310;28;20053;-74
2023/11/05 00:14:15;;;;;;;3.90;0.57;;;11.40;99.90;;;;;;6247430;28;20047;-75
2023/11/05 00:17:17;;;;;;;0.40;0.40;;;11.40;99.90;;;;;;6247649;28;20060;-75
2023/11/05 00:20:19;;;;;;;0.35;0.30;;;11.40;99.90;;;;;;6259516;28;20045;-75
2023/11/05 00:23:21;;;;;;;0.63;0.57;;;11.40;99.90;;;;;;6247808;28;20041;-75
2023/11/05 00:26:24;;;;;;;0.43;0.40;;;11.50;99.90;;;;;;6246733;28;20046;-75
2023/11/05 00:29:26;;;;;;;2.80;0.52;;;11.60;99.90;;;;;;6247625;28;20127;-75
2023/11/05 00:32:27;;;;;;;0.77;0.30;;;11.70;99.90;;;;;;6247439;28;20045;-76
2023/11/05 00:35:30;;;;;;;1.50;0.32;;;11.60;99.90;;;;;;6261216;28;20045;-75
2023/11/05 00:38:31;;;;;;;2.05;1.00;;;11.60;99.90;;;;;;6270167;28;20040;-76
2023/11/05 00:41:34;;;;;;;0.10;0.10;;;11.60;99.90;;;;;;6257870;28;20048;-75
2023/11/05 00:44:36;;;;;;;1.10;0.43;;;11.80;99.90;;;;;;6267038;28;20584;-76
2023/11/05 00:47:38;;;;;;;1.75;0.90;;;11.90;99.90;;;;;;6270735;28;20045;-75
2023/11/05 00:50:39;;;;;;;1.52;0.50;;;11.90;99.90;;;;;;6266657;28;20048;-76
2023/11/05 00:53:41;;;;;;;3.03;0.20;;;11.90;99.90;;;;;;6250709;28;20040;-75
2023/11/05 00:56:44;;;;;;;0.55;0.52;;;12.10;99.90;;;;;;6258474;28;20051;-75
2023/11/05 00:59:46;;;;;;;2.80;0.40;;;12.20;99.90;;;;;;6246080;28;20445;-76
2023/11/05 01:02:48;;;;;;;0.50;0.50;;;12.20;99.90;;;;;;6246834;28;20050;-76
2023/11/05 01:05:50;;;;;;;0.75;0.47;;;12.40;99.90;;;;;;6247734;28;20037;-76
2023/11/05 01:08:51;;;;;;;2.70;0.40;;;12.50;99.90;;;;;;6246790;28;20055;-75
2023/11/05 01:11:54;;;;;;;1.42;0.73;;;12.70;99.90;;;;;;6245967;28;20461;-76
2023/11/05 01:14:56;;;;;;;0.98;0.60;;;12.80;99.90;;;;;;6246073;28;20048;-76
2023/11/05 01:17:58;;;;;;;3.92;1.08;;;13.00;99.90;;;;;;6245912;28;20049;-76
2023/11/05 01:21:00;;;;;;;3.75;0.45;;;13.10;99.90;;;;;;6246120;28;20049;-76
2023/11/05 01:24:02;;;;;;;0.90;0.40;;;13.20;99.90;;;;;;6246032;28;20041;-75
2023/11/05 01:27:05;;;;;;;12.85;2.72;;;13.30;99.90;;;;;;6248788;28;20446;-76
2023/11/05 01:30:09;;;;;;;2.83;1.67;;;13.40;99.90;;;;;;6255232;28;20038;-76
2023/11/05 01:33:11;;;;;;;1.70;0.73;;;13.40;99.90;;;;;;6245958;28;20049;-76
2023/11/05 01:36:12;;;;;;;4.88;0.65;;;13.40;99.90;;;;;;6245695;28;20049;-76
2023/11/05 01:39:15;;;;;;;10.57;1.15;;;13.40;99.90;;;;;;6245783;28;20407;-76
2023/11/05 01:42:18;;;;;;;1.55;0.40;;;13.40;99.90;;;;;;6245513;28;20033;-76
2023/11/05 01:45:22;;;;;;;2.15;0.60;;;13.40;99.90;;;;;;6245548;28;20525;-76
2023/11/05 01:48:23;;;;;;;0.50;0.35;;;13.50;99.90;;;;;;6245912;28;20060;-76
2023/11/05 01:51:26;;;;;;;2.38;1.05;;;13.50;99.90;;;;;;6244831;28;20041;-76
2023/11/05 01:54:29;;;;;;;0.47;0.30;;;13.50;99.90;;;;;;6245074;28;20473;-75
2023/11/05 01:57:32;;;;;;;1.77;0.70;;;13.40;99.90;;;;;;6245502;28;20044;-76
2023/11/05 02:00:34;;;;;;;4.78;0.50;;;13.30;99.90;;;;;;6245578;28;20046;-76
2023/11/05 02:03:39;;;;;;;2.45;0.82;;;13.10;99.90;;;;;;6245423;28;20502;-76
2023/11/05 02:06:40;;;;;;;4.13;0.90;;;13.00;99.90;;;;;;6245065;28;20050;-75
2023/11/05 02:09:42;;;;;;;3.72;1.02;;;12.90;99.90;;;;;;6244724;28;20049;-76
2023/11/05 02:12:57;;;;;;;1.30;1.20;;;12.70;99.90;;;;;;6245219;28;20577;-76
2023/11/05 02:16:00;;;;;;;0.65;0.52;;;12.60;99.90;;;;;;6244704;28;20052;-76
2023/11/05 02:19:02;;;;;;;2.65;0.70;;;12.60;99.90;;;;;;6253094;28;20041;-76
2023/11/05 02:22:11;;;;;;;6.00;0.57;;;12.50;99.90;;;;;;6252090;28;20045;-76
2023/11/05 02:25:18;;;;;;;6.20;0.70;;;12.40;99.90;;;;;;6245076;28;20045;-76
2023/11/05 02:28:20;;;;;;;0.57;0.30;;;12.40;99.90;;;;;;6260094;28;20051;-76
2023/11/05 02:31:22;;;;;;;3.65;0.50;;;12.40;99.90;;;;;;6262792;28;20135;-75
2023/11/05 02:34:23;;;;;;;3.00;0.40;;;12.50;99.90;;;;;;6251647;28;20041;-76
2023/11/05 02:37:25;;;;;;;3.10;0.50;;;12.50;99.90;;;;;;6274009;28;20051;-76
2023/11/05 02:40:28;;;;;;;3.30;0.80;;;12.40;99.90;;;;;;6255286;28;20054;-76
2023/11/05 02:43:30;;;;;;;2.20;0.57;;;12.40;99.90;;;;;;6269507;28;20508;-76
2023/11/05 02:46:32;;;;;;;3.10;0.63;;;12.40;99.90;;;;;;6269228;28;20041;-76
2023/11/05 02:49:34;;;;;;;4.80;0.75;;;12.40;99.90;;;;;;6260888;28;20055;-76
2023/11/05 02:52:35;;;;;;;3.47;1.33;;;12.40;99.90;;;;;;6261493;28;20048;-76
2023/11/05 02:55:38;;;;;;;1.42;0.68;;;12.50;99.90;;;;;;6263623;28;20034;-75
2023/11/05 02:58:40;;;;;;;4.47;0.90;;;12.60;99.90;;;;;;6247661;28;20052;-75
2023/11/05 03:01:42;;;;;;;3.65;0.68;;;12.70;99.90;;;;;;6256720;28;20047;-76
2023/11/05 03:04:43;;;;;;;1.52;0.52;;;12.80;99.90;;;;;;6256126;28;20041;-75
2023/11/05 03:07:45;;;;;;;3.90;0.50;;;12.90;99.90;;;;;;6268571;28;20450;-76
2023/11/05 03:10:48;;;;;;;2.42;0.43;;;13.00;99.90;;;;;;6256006;28;20430;-76
2023/11/05 03:13:50;;;;;;;1.35;0.55;;;13.20;99.90;;;;;;6257297;28;20056;-76
2023/11/05 03:16:51;;;;;;;0.90;0.40;;;13.30;99.90;;;;;;6256331;28;20058;-76
2023/11/05 03:19:53;;;;;;;0.57;0.57;;;13.30;99.90;;;;;;6257639;28;20041;-76
2023/11/05 03:22:55;;;;;;;1.50;0.50;;;13.40;99.90;;;;;;6260868;28;20041;-76
2023/11/05 03:25:58;;;;;;;2.08;0.75;;;13.40;99.90;;;;;;6254416;28;20069;-76
2023/11/05 03:29:00;;;;;;;0.47;0.47;;;13.50;99.90;;;;;;6271668;28;20041;-76
2023/11/05 03:32:02;;;;;;;2.78;0.80;;;13.50;99.90;;;;;;6258319;28;20049;-76
2023/11/05 03:35:05;;;;;;;2.25;0.82;;;13.50;99.90;;;;;;6263404;28;20033;-76
2023/11/05 03:38:07;;;;;;;4.50;0.65;;;13.50;99.90;;;;;;6258580;28;20049;-76
2023/11/05 03:41:10;;;;;;;7.43;0.60;;;13.60;99.90;;;;;;6248210;28;20059;-76
2023/11/05 03:44:12;;;;;;;3.60;0.77;;;13.70;99.90;;;;;;6266611;28;20060;-76
2023/11/05 03:47:14;;;;;;;3.42;0.60;;;13.80;99.90;;;;;;6257809;28;20041;-75
2023/11/05 03:50:16;;;;;;;2.97;0.73;;;13.80;99.90;;;;;;6240059;28;20042;-76
2023/11/05 03:53:17;;;;;;;2.30;0.40;;;13.80;99.90;;;;;;6240550;28;20042;-76
2023/11/05 03:56:20;;;;;;;3.22;0.82;;;13.80;99.90;;;;;;6248567;28;20056;-76
2023/11/05 03:59:22;;;;;;;3.58;0.63;;;13.80;99.90;;;;;;6248293;28;20045;-76
2023/11/05 04:02:24;;;;;;;1.92;0.32;;;13.70;99.90;;;;;;6247168;28;20050;-76
2023/11/05 04:05:26;;;;;;;0.45;0.20;;;13.70;99.90;;;;;;6247802;28;20053;-76
2023/11/05 04:08:27;;;;;;;0.38;0.38;;;13.70;99.90;;;;;;6248133;28;20374;-76
2023/11/05 04:11:31;;;;;;;3.17;0.90;;;13.70;99.90;;;;;;6247318;28;20053;-76
2023/11/05 04:14:32;;;;;;;0.70;0.52;;;13.60;99.90;;;;;;6247750;28;20038;-76
2023/11/05 04:17:34;;;;;;;2.63;0.75;;;13.50;99.90;;;;;;6247427;28;20041;-76
2023/11/05 04:20:36;;;;;;;2.13;0.40;;;13.30;99.90;;;;;;6247134;28;20069;-76
2023/11/05 04:23:37;;;;;;;3.00;0.68;;;13.20;99.90;;;;;;6247301;28;20119;-76
2023/11/05 04:26:41;;;;;;;1.20;0.40;;;13.20;99.90;;;;;;6247288;28;20055;-76
2023/11/05 04:29:42;;;;;;;3.38;0.90;;;13.10;99.90;;;;;;6247221;28;20052;-76
2023/11/05 04:32:44;;;;;;;0.63;0.43;;;13.10;99.90;;;;;;6247485;28;20139;-76
2023/11/05 04:35:46;;;;;;;0.22;0.20;;;13.10;99.90;;;;;;6247209;28;20529;-76
2023/11/05 04:38:47;;;;;;;4.88;0.63;;;13.10;99.90;;;;;;6267485;28;20072;-76
2023/11/05 04:41:50;;;;;;;0.50;0.45;;;13.20;99.90;;;;;;6267655;28;20049;-76
2023/11/05 04:44:52;;;;;;;0.90;0.30;;;13.10;99.90;;;;;;6260180;28;20044;-76
2023/11/05 04:47:54;;;;;;;2.58;0.47;;;12.80;99.90;;;;;;6258482;28;20076;-76
2023/11/05 04:50:56;;;;;;;0.17;0.17;;;12.50;99.90;;;;;;6260218;28;20063;-76
2023/11/05 04:53:57;;;;;;;1.10;0.47;;;12.30;99.90;;;;;;6267375;28;20055;-76
2023/11/05 04:57:00;;;;;;;2.75;0.52;;;12.20;99.90;;;;;;6258118;28;20054;-76
2023/11/05 05:00:02;;;;;;;0.40;0.10;;;12.10;99.90;;;;;;6268775;28;20041;-77
2023/11/05 05:03:04;;;;;;;1.65;0.80;;;12.10;99.90;;;;;;6271314;28;20045;-76
2023/11/05 05:06:06;;;;;;;1.27;0.45;;;12.20;99.90;;;;;;6252464;28;20045;-76
2023/11/05 05:09:09;;;;;;;0.52;0.25;;;12.30;99.90;;;;;;6246803;28;20045;-76
2023/11/05 05:12:12;;;;;;;0.47;0.35;;;12.40;99.90;;;;;;6245818;28;20433;-76
2023/11/05 05:15:14;;;;;;;0.85;0.47;;;12.30;99.90;;;;;;6247234;28;20053;-77
2023/11/05 05:18:15;;;;;;;1.35;0.45;;;12.30;99.90;;;;;;6247756;28;20494;-76
2023/11/05 05:21:17;;;;;;;0.85;0.40;;;12.30;99.90;;;;;;6248289;28;20045;-76
2023/11/05 05:24:19;;;;;;;3.05;0.80;;;12.30;99.90;;;;;;6248484;28;20144;-76
2023/11/05 05:27:22;;;;;;;1.38;1.27;;;12.30;99.90;;;;;;6273008;28;20072;-74
2023/11/05 05:30:24;;;;;;;0.57;0.30;;;12.30;99.90;;;;;;6263883;28;20055;-77
2023/11/05 05:33:26;;;;;;;1.30;0.35;;;12.30;99.90;;;;;;6256420;28;20252;-77
2023/11/05 05:36:28;;;;;;;2.65;1.05;;;12.10;99.90;;;;;;6257196;28;20048;-77
2023/11/05 05:39:29;;;;;;;0.32;0.30;;;12.00;99.90;;;;;;6264686;28;20056;-77
2023/11/05 05:42:32;;;;;;;3.58;1.30;;;11.90;99.90;;;;;;6256709;28;20398;-77
2023/11/05 05:45:34;;;;;;;15.02;7.63;;;11.90;99.90;;;;;;6262307;28;20044;-79
2023/11/05 05:48:37;;;;;;;9.95;4.97;;;11.80;99.90;;;;;;6258124;28;20049;-77
2023/11/05 05:51:38;;;;;;;3.67;1.00;;;11.60;99.90;;;;;;6248905;28;20049;-77
2023/11/05 05:54:40;;;;;;;3.72;0.52;;;11.50;99.90;;;;;;6250169;28;20521;-78
2023/11/05 05:57:43;;;;;;;2.00;1.90;;;11.40;99.90;;;;;;6252109;28;20525;-78
2023/11/05 06:00:45;;;;;;;0.55;0.40;;;11.40;99.90;;;;;;6276086;28;20053;-77
2023/11/05 06:03:47;;;;;;;0.40;0.40;;;11.50;99.90;;;;;;6255476;28;20045;-78
2023/11/05 06:06:49;;;;;;;0.20;0.20;;;11.50;99.90;;;;;;6259120;28;20045;-78
2023/11/05 06:09:50;;;;;;;2.70;0.80;;;11.60;99.90;;;;;;6260940;28;20532;-76
2023/11/05 06:12:54;;;;;;;0.47;0.47;;;11.70;99.90;;;;;;6261890;28;20130;-75
2023/11/05 06:15:55;;;;;;;0.52;0.52;;;11.70;99.90;;;;;;6260436;28;20037;-77
2023/11/05 06:18:57;;;;;;;1.85;0.82;;;11.70;99.90;;;;;;6247168;28;20052;-76
2023/11/05 06:21:59;;;;;;;3.05;1.27;;;11.60;99.90;;;;;;6260459;28;20367;-78
2023/11/05 06:25:02;;;;;;;3.70;0.52;;;11.50;99.90;;;;;;6260321;28;20049;-78
2023/11/05 06:28:05;;;;;;;3.03;0.77;;;11.40;99.90;;;;;;6256414;28;20041;-78
2023/11/05 06:31:07;;;;;;;1.17;0.75;;;11.30;99.90;;;;;;6263466;28;20052;-77
2023/11/05 06:34:08;;;;;;;0.50;0.50;;;11.30;99.90;;;;;;6266382;28;20044;-78
2023/11/05 06:37:10;;;;;;;0.32;0.20;;;11.20;99.90;;;;;;6265504;28;20048;-77
2023/11/05 06:40:13;;;;;;;0.20;0.20;;;11.10;99.90;;;;;;6254709;28;20052;-77
2023/11/05 06:43:16;;;;;;;2.17;0.20;;;11.10;99.90;;;;;;6255950;28;20119;-77
2023/11/05 06:46:17;;;;;;;0.22;0.10;;;11.10;99.90;;;;;;6250618;28;20111;-74
2023/11/05 06:49:19;;;;;;;0.85;0.45;;;11.00;99.90;;;;;;6262108;28;20048;-75
2023/11/05 06:52:21;;;;;;;0.85;0.57;;;10.90;99.90;;;;;;6252006;28;20056;-77
2023/11/05 06:55:22;;;;;;;1.65;1.23;;;10.80;99.90;;;;;;6246957;28;20041;-77
2023/11/05 06:58:25;;;;;;;1.08;0.52;;;10.70;99.90;;;;;;6246203;28;20046;-77
2023/11/05 07:01:27;;;;;;;2.58;0.50;;;10.70;99.90;;;;;;6251084;28;20418;-77
2023/11/05 07:04:29;;;;;;;0.50;0.38;;;10.60;99.90;;;;;;6257130;28;20055;-77
2023/11/05 07:07:31;;;;;;;0.50;0.30;;;10.70;99.90;;;;;;6256243;28;20075;-77
2023/11/05 07:10:33;;;;;;;0.50;0.38;;;10.70;99.90;;;;;;6275206;28;20055;-77
2023/11/05 07:13:36;;;;;;;0.50;0.30;;;10.80;99.90;;;;;;6254343;28;20054;-77
2023/11/05 07:16:38;;;;;;;37.33;16.70;;;10.80;99.90;;;;;;6253151;28;20049;-78
2023/11/05 07:19:40;;;;;;;30.75;15.25;;;10.90;99.90;;;;;;6252258;28;20053;-77
2023/11/05 07:22:44;;;;;;;2.70;1.55;;;11.00;99.90;;;;;;6251621;28;20060;-77
2023/11/05 07:25:45;;;;;;;3.58;1.02;;;11.10;99.90;;;;;;6252495;28;20048;-78
2023/11/05 07:28:49;;;;;;;8.82;3.95;;;11.20;99.90;;;;;;6252755;28;20992;-78
2023/11/05 07:31:50;;;;;;;11.43;2.80;;;11.20;99.90;;;;;;6251571;28;20045;-77
2023/11/05 07:34:52;;;;;;;5.72;2.55;;;11.30;99.90;;;;;;6252309;28;20052;-77
2023/11/05 07:37:54;;;;;;;2.20;1.05;;;11.40;99.90;;;;;;6250735;28;20136;-77
2023/11/05 07:40:56;;;;;;;8.77;2.72;;;11.50;99.90;;;;;;6267572;28;20568;-78
2023/11/05 07:43:59;;;;;;;3.63;2.15;;;11.60;99.90;;;;;;6250675;28;20522;-78
2023/11/05 07:47:01;;;;;;;2.05;1.20;;;11.60;99.90;;;;;;6250789;28;20049;-78
2023/11/05 07:50:03;;;;;;;2.22;0.40;;;11.60;99.90;;;;;;6251535;28;20128;-78
2023/11/05 07:53:05;;;;;;;2.58;1.75;;;11.50;99.90;;;;;;6260031;28;20045;-76
2023/11/05 07:56:10;;;;;;;4.57;0.80;;;11.40;99.90;;;;;;6273379;28;20043;-77
2023/11/05 07:59:13;;;;;;;0.68;0.38;;;11.20;99.90;;;;;;6276349;28;20059;-75
2023/11/05 08:02:15;;;;;;;1.08;0.20;;;11.10;99.90;;;;;;6253602;28;20070;-79
2023/11/05 08:05:17;;;;;;;0.28;0.28;;;11.00;99.90;;;;;;6250996;28;20041;-77
2023/11/05 08:08:18;;;;;;;1.65;0.60;;;10.90;99.90;;;;;;6253444;28;20049;-78
2023/11/05 08:11:20;;;;;;;3.15;0.80;;;10.90;99.90;;;;;;6253295;28;20045;-78
2023/11/05 08:14:23;;;;;;;0.32;0.20;;;11.00;99.90;;;;;;6251843;28;20061;-79
2023/11/05 08:17:25;;;;;;;0.25;0.25;;;11.00;99.90;;;;;;6275617;28;20111;-75
2023/11/05 08:20:26;;;;;;;0.45;0.30;;;11.10;99.90;;;;;;6277662;28;20052;-78
2023/11/05 08:23:28;;;;;;;0.10;0.10;;;11.20;99.90;;;;;;6266382;28;20049;-78
2023/11/05 08:26:30;;;;;;;0.30;0.30;;;11.30;99.90;;;;;;6267234;28;20045;-78
2023/11/05 08:29:33;;;;;;;0.50;0.50;;;11.40;99.90;;;;;;6267181;28;20051;-78
2023/11/05 08:32:35;;;;;;;0.40;0.30;;;11.40;99.90;;;;;;6242098;28;20163;-78
2023/11/05 08:35:36;;;;;;;1.75;1.33;;;11.40;99.90;;;;;;6269480;28;20406;-79
2023/11/05 08:38:38;;;;;;;2.30;0.68;;;11.50;99.90;;;;;;6252278;28;20049;-78
2023/11/05 08:41:44;;;;;;;9.65;7.65;;;11.60;99.90;;;;;;6231286;28;20123;-76
2023/11/05 08:44:47;;;;;;;5.78;3.15;;;11.60;99.90;;;;;;6247510;28;20191;-78
2023/11/05 08:47:49;;;;;;;1.15;0.95;;;11.70;99.90;;;;;;6242353;28;20037;-78
2023/11/05 08:50:51;;;;;;;0.65;0.50;;;11.80;99.90;;;;;;6248948;28;20056;-79
2023/11/05 08:53:53;;;;;;;0.13;0.13;;;11.90;99.90;;;;;;6253945;28;20075;-78
2023/11/05 08:56:55;;;;;;;0.52;0.52;;;12.10;99.90;;;;;;6196515;28;20061;-78
2023/11/05 08:59:58;;;;;;;0.17;0.17;;;12.10;99.90;;;;;;6258935;28;20056;-80
2023/11/05 09:03:00;;;;;;;0.40;0.40;;;12.20;99.90;;;;;;6260584;28;20044;-76
2023/11/05 09:06:02;;;;;;;0.30;0.25;;;12.10;99.90;;;;;;6258580;28;20041;-79
2023/11/05 09:09:05;;;;;;;2.53;0.32;;;12.00;99.90;;;;;;6262424;28;20089;-79
2023/11/05 09:12:09;;;;;;;0.52;0.32;;;12.00;99.90;;;;;;6251853;28;20113;-78
2023/11/05 09:15:13;;;;;;;8.82;0.35;;;11.90;99.90;;;;;;6252273;28;20048;-78
2023/11/05 09:18:14;;;;;;;0.60;0.60;;;11.80;99.90;;;;;;6252191;28;20048;-79
2023/11/05 09:21:16;;;;;;;0.45;0.20;;;11.80;99.90;;;;;;6245209;28;20048;-77
2023/11/05 09:24:18;;;;;;;0.32;0.32;;;11.90;99.90;;;;;;6255089;28;20053;-77
2023/11/05 09:27:20;;;;;;;0.25;0.25;;;12.00;99.90;;;;;;6267059;28;20053;-77
2023/11/05 09:30:23;;;;;;;0.20;0.20;;;12.10;99.90;;;;;;6254472;28;20051;-77
2023/11/05 09:33:25;;;;;;;0.55;0.30;;;12.20;99.90;;;;;;6261655;28;20056;-77
2023/11/05 09:36:27;;;;;;;0.65;0.52;;;12.20;99.90;;;;;;6255621;28;20132;-77
2023/11/05 09:39:29;;;;;;;8.35;0.43;;;12.20;99.90;;;;;;6254063;28;20743;-77
2023/11/05 09:42:31;;;;;;;1.45;0.30;;;12.20;99.90;;;;;;6245467;28;20052;-77
2023/11/05 09:45:35;;;;;;;1.38;0.20;;;12.20;99.90;;;;;;6247389;28;20045;-78
2023/11/05 09:48:37;;;;;;;0.25;0.25;;;12.30;99.90;;;;;;6256281;28;20053;-77
2023/11/05 09:51:39;;;;;;;1.08;0.30;;;12.40;99.90;;;;;;6255014;28;20049;-76
2023/11/05 09:54:43;;;;;;;0.20;0.20;;;12.40;99.90;;;;;;6262151;28;20393;-76
2023/11/05 09:57:45;;;;;;;3.33;0.50;;;12.30;99.90;;;;;;6256183;28;20518;-76
2023/11/05 10:00:50;;;;;;;0.10;0.10;;;12.10;99.90;;;;;;6261614;28;20049;-77
2023/11/05 10:03:52;;;;;;;2.20;0.20;;;12.00;99.90;;;;;;6254437;28;20045;-77
2023/11/05 10:06:54;;;;;;;0.22;0.20;;;11.80;99.90;;;;;;6254585;28;20132;-77
2023/11/05 10:09:56;;;;;;;0.63;0.32;;;11.70;99.90;;;;;;6246744;28;20434;-78
2023/11/05 10:12:58;;;;;;;0.70;0.20;;;11.70;99.90;;;;;;6243484;28;20049;-76
2023/11/05 10:16:01;;;;;;;0.77;0.35;;;11.70;99.90;;;;;;6249290;28;20053;-76
2023/11/05 10:19:02;;;;;;;0.35;0.25;;;11.70;99.90;;;;;;6247324;28;20041;-76
2023/11/05 10:22:15;;;;;;;2.17;0.30;;;11.80;99.90;;;;;;6258247;28;20063;-76
2023/11/05 10:25:24;;;;;;;2.05;0.47;;;11.80;99.90;;;;;;6254963;28;20051;-77
2023/11/05 10:28:28;;;;;;;0.20;0.20;;;11.80;99.90;;;;;;6258274;28;20046;-77
2023/11/05 10:31:32;;;;;;;0.73;0.30;;;11.90;99.90;;;;;;6254796;28;20053;-75
2023/11/05 10:34:36;;;;;;;0.30;0.20;;;11.90;99.90;;;;;;6264583;28;20033;-77
2023/11/05 10:37:37;;;;;;;1.75;0.45;;;11.80;99.90;;;;;;6264804;28;20045;-77
2023/11/05 10:40:39;;;;;;;0.68;0.43;;;11.70;99.90;;;;;;6250827;28;20430;-78
2023/11/05 10:43:41;;;;;;;0.20;0.20;;;11.70;99.90;;;;;;6251839;28;20050;-77
2023/11/05 10:46:44;;;;;;;0.20;0.20;;;11.70;99.90;;;;;;6251866;28;20086;-78
2023/11/05 10:49:49;;;;;;;2.13;0.45;;;11.70;99.90;;;;;;6270848;28;20143;-78
2023/11/05 10:52:55;;;;;;;0.40;0.40;;;11.60;99.90;;;;;;6266886;28;20568;-76
2023/11/05 10:55:57;;;;;;;0.52;0.30;;;11.60;99.90;;;;;;6259309;28;20041;-76
2023/11/05 10:58:59;;;;;;;0.68;0.47;;;11.50;99.90;;;;;;6261347;28;20049;-77
2023/11/05 11:02:02;;;;;;;0.43;0.30;;;11.50;99.90;;;;;;6255242;28;20056;-77
2023/11/05 11:05:06;;;;;;;0.40;0.40;;;11.50;99.90;;;;;;6253347;28;20514;-77
2023/11/05 11:08:09;;;;;;;0.17;0.17;;;11.40;99.90;;;;;;6254245;28;20040;-77
2023/11/05 11:11:15;;;;;;;0.82;0.40;;;11.50;99.90;;;;;;6253507;28;20394;-77
2023/11/05 11:14:17;;;;;;;0.63;0.43;;;11.50;99.90;;;;;;6260767;28;20050;-76
2023/11/05 11:17:21;;;;;;;0.38;0.22;;;11.60;99.90;;;;;;6259724;28;20056;-76
2023/11/05 11:20:24;;;;;;;2.85;0.28;;;11.70;99.90;;;;;;6251876;28;20057;-76
2023/11/05 11:23:27;;;;;;;0.35;0.20;;;11.80;99.90;;;;;;6264343;28;20044;-76
2023/11/05 11:26:30;;;;;;;2.03;0.30;;;11.90;99.90;;;;;;6257721;28;20498;-76
2023/11/05 11:29:32;;;;;;;2.55;0.38;;;12.00;99.90;;;;;;6246107;28;20050;-76
2023/11/05 11:32:36;;;;;;;0.28;0.20;;;12.00;99.90;;;;;;6239580;28;20537;-76
2023/11/05 11:35:38;;;;;;;0.20;0.20;;;12.10;99.90;;;;;;6242532;28;20042;-75
2023/11/05 11:38:40;;;;;;;1.40;0.60;;;12.10;99.90;;;;;;6255596;28;20044;-76
2023/11/05 11:41:45;;;;;;;0.40;0.28;;;12.10;99.90;;;;;;6243871;28;20061;-76
2023/11/05 11:44:47;;;;;;;0.30;0.30;;;12.10;99.90;;;;;;6270275;28;20045;-78
2023/11/05 11:47:50;;;;;;;1.75;0.47;;;12.00;99.90;;;;;;6247535;28;20041;-76
2023/11/05 11:50:53;;;;;;;0.20;0.20;;;12.00;99.90;;;;;;6243104;28;20041;-76
2023/11/05 11:53:55;;;;;;;0.47;0.40;;;12.00;99.90;;;;;;6246447;28;20418;-76
2023/11/05 11:56:57;;;;;;;0.20;0.20;;;12.20;99.90;;;;;;6248149;28;20045;-77
2023/11/05 11:59:58;;;;;;;0.50;0.40;;;12.30;99.90;;;;;;6241542;28;20046;-77
2023/11/05 12:03:01;;;;;;;0.40;0.40;;;12.40;99.90;;;;;;6246757;28;20041;-76
2023/11/05 12:06:04;;;;;;;2.33;0.40;;;12.50;99.90;;;;;;6238411;28;20052;-76
2023/11/05 12:09:06;;;;;;;0.15;0.15;;;12.60;99.90;;;;;;6244372;28;20041;-76
2023/11/05 12:12:08;;;;;;;0.20;0.20;;;12.60;99.90;;;;;;6256217;28;20047;-76
2023/11/05 12:15:12;;;;;;;4.47;0.65;;;12.70;99.90;;;;;;6260062;28;20041;-76
2023/11/05 12:18:16;;;;;;;0.20;0.20;;;12.80;99.90;;;;;;6252695;28;20041;-77
2023/11/05 12:21:18;;;;;;;0.28;0.17;;;12.80;99.90;;;;;;6248906;28;20053;-76
2023/11/05 12:24:20;;;;;;;0.52;0.10;;;12.90;99.90;;;;;;6248789;28;20053;-76
2023/11/05 12:27:21;;;;;;;1.17;0.50;;;13.00;99.90;;;;;;6253713;28;20044;-76
2023/11/05 12:30:24;;;;;;;0.30;0.20;;;13.00;99.90;;;;;;6251275;28;20053;-78
2023/11/05 12:33:27;;;;;;;0.75;0.50;;;13.10;99.90;;;;;;6268108;28;20049;-76
2023/11/05 12:36:29;;;;;;;0.30;0.20;;;13.10;99.90;;;;;;6254812;28;20113;-75
2023/11/05 12:39:31;;;;;;;0.28;0.28;;;13.20;99.90;;;;;;6258148;28;20048;-77
2023/11/05 12:42:33;;;;;;;0.70;0.38;;;13.30;99.90;;;;;;6253710;28;20051;-77
2023/11/05 12:45:35;;;;;;;0.40;0.20;;;13.40;99.90;;;;;;6254413;28;20068;-76
2023/11/05 12:48:38;;;;;;;0.30;0.30;;;13.60;99.90;;;;;;6260894;28;20945;-76
2023/11/05 12:51:40;;;;;;;0.75;0.65;;;13.80;99.90;;;;;;6253405;28;20045;-76
2023/11/05 12:54:41;;;;;;;0.28;0.20;;;14.00;99.90;;;;;;6264486;28;20049;-76
2023/11/05 12:57:46;;;;;;;5.55;0.88;;;14.20;99.90;;;;;;6247743;28;20037;-76
2023/11/05 13:00:47;;;;;;;0.93;0.30;;;14.20;99.90;;;;;;6242263;28;20060;-77
2023/11/05 13:03:51;;;;;;;0.30;0.20;;;14.10;99.90;;;;;;6248348;28;20046;-77
2023/11/05 13:06:54;;;;;;;0.43;0.43;;;14.10;99.90;;;;;;6247369;28;20045;-77
2023/11/05 13:09:57;;;;;;;0.90;0.40;;;14.00;99.90;;;;;;6247463;28;20061;-76
2023/11/05 13:12:59;;;;;;;0.40;0.40;;;13.90;99.90;;;;;;6246832;28;20052;-76
2023/11/05 13:16:01;;;;;;;0.68;0.57;;;13.80;99.90;;;;;;6247560;28;20056;-77
2023/11/05 13:19:05;;;;;;;0.55;0.20;;;13.70;99.90;;;;;;6245537;28;20049;-77
2023/11/05 13:22:06;;;;;;;2.08;0.45;;;13.60;99.90;;;;;;6245944;28;20502;-76
2023/11/05 13:25:09;;;;;;;0.85;0.85;;;13.50;99.90;;;;;;6247390;28;20411;-77
2023/11/05 13:28:11;;;;;;;5.20;0.77;;;13.50;99.90;;;;;;6249434;28;20037;-77
2023/11/05 13:31:13;;;;;;;1.85;1.75;;;13.40;99.90;;;;;;6253026;28;20045;-78
2023/11/05 13:34:16;;;;;;;1.83;1.50;;;13.20;99.90;;;;;;6249864;28;20042;-77
2023/11/05 13:37:18;;;;;;;1.13;0.40;;;13.10;99.90;;;;;;6247314;28;20041;-77
2023/11/05 13:40:22;;;;;;;0.57;0.40;;;13.00;99.90;;;;;;6247171;28;20543;-77
2023/11/05 13:43:24;;;;;;;0.32;0.28;;;13.00;99.90;;;;;;6247142;28;20484;-77
2023/11/05 13:46:26;;;;;;;0.20;0.20;;;12.90;99.90;;;;;;6255557;28;20049;-77
2023/11/05 13:49:29;;;;;;;2.15;0.20;;;12.90;99.90;;;;;;6255868;28;20050;-77
2023/11/05 13:52:31;;;;;;;1.48;1.27;;;12.90;99.90;;;;;;6255539;28;20128;-76
2023/11/05 13:55:33;;;;;;;6.32;2.80;;;12.90;99.90;;;;;;6263639;28;20415;-80
2023/11/05 13:58:35;;;;;;;0.98;0.80;;;12.90;99.90;;;;;;6264130;28;20067;-77
2023/11/05 14:01:36;;;;;;;6.38;1.67;;;12.90;99.90;;;;;;6281985;28;20045;-79
2023/11/05 14:04:39;;;;;;;0.82;0.82;;;12.90;99.90;;;;;;6251363;28;20056;-78
2023/11/05 14:07:41;;;;;;;7.32;5.90;;;12.90;99.90;;;;;;6255874;28;20738;-78
2023/11/05 14:10:47;;;;;;;3.08;2.22;;;12.90;99.90;;;;;;6250919;28;20551;-76
2023/11/05 14:13:49;;;;;;;11.27;8.30;;;12.90;99.90;;;;;;6254063;28;20044;-77
2023/11/05 14:16:51;;;;;;;2.63;2.15;;;12.90;99.90;;;;;;6255994;28;20053;-78
2023/11/05 14:19:54;;;;;;;5.43;4.55;;;12.90;99.90;;;;;;6267765;28;20041;-77
2023/11/05 14:22:55;;;;;;;7.53;5.10;;;12.90;99.90;;;;;;6254373;28;20563;-77
2023/11/05 14:25:58;;;;;;;5.20;2.28;;;12.90;99.90;;;;;;6247108;28;20037;-78
2023/11/05 14:28:59;;;;;;;2.72;1.08;;;12.90;99.90;;;;;;6255696;28;20075;-77
2023/11/05 14:32:02;;;;;;;1.17;0.77;;;13.00;99.90;;;;;;6247469;28;20076;-76
2023/11/05 14:35:09;;;;;;;2.42;2.20;;;13.00;99.90;;;;;;6252135;28;20080;-75
2023/11/05 14:38:10;;;;;;;3.80;1.08;;;13.00;99.90;;;;;;6247358;28;20517;-76
2023/11/05 14:41:14;;;;;;;1.55;0.63;;;13.00;99.90;;;;;;6244577;28;20045;-75
2023/11/05 14:44:16;;;;;;;1.95;1.20;;;12.90;99.90;;;;;;6253414;28;20057;-75
2023/11/05 14:47:18;;;;;;;2.67;1.52;;;12.90;99.90;;;;;;6253225;28;20068;-75
2023/11/05 14:50:21;;;;;;;3.72;2.20;;;12.90;99.90;;;;;;6243282;28;20053;-75
2023/11/05 14:53:25;;;;;;;0.95;0.40;;;12.80;99.90;;;;;;6232230;28;20056;-75
2023/11/05 14:56:27;;;;;;;0.52;0.32;;;12.70;99.90;;;;;;6224673;28;20510;-75
2023/11/05 14:59:28;;;;;;;2.28;0.90;;;12.50;99.90;;;;;;6227535;28;20057;-75
2023/11/05 15:02:30;;;;;;;1.42;0.85;;;12.40;99.90;;;;;;6239705;28;20054;-74
2023/11/05 15:05:35;;;;;;;0.17;0.13;;;12.30;99.90;;;;;;6225164;28;20059;-75
2023/11/05 15:08:37;;;;;;;1.35;0.85;;;12.30;99.90;;;;;;6243387;28;20414;-75
2023/11/05 15:11:40;;;;;;;0.57;0.28;;;12.40;99.90;;;;;;6249466;28;20042;-75
2023/11/05 15:14:41;;;;;;;0.73;0.38;;;12.40;99.90;;;;;;6246077;28;20052;-75
2023/11/05 15:17:44;;;;;;;0.55;0.45;;;12.30;99.90;;;;;;6251496;28;20418;-75
2023/11/05 15:20:47;;;;;;;1.65;0.40;;;12.30;99.90;;;;;;6244676;28;20510;-75
2023/11/05 15:23:49;;;;;;;1.92;0.77;;;12.30;99.90;;;;;;6248675;28;20049;-75
2023/11/05 15:26:51;;;;;;;3.05;0.93;;;12.30;99.90;;;;;;6248726;28;20423;-74
2023/11/05 15:29:52;;;;;;;1.40;0.52;;;12.30;99.90;;;;;;6248658;28;20085;-75
2023/11/05 15:32:57;;;;;;;1.10;0.73;;;12.20;99.90;;;;;;6249100;28;20049;-75
2023/11/05 15:36:00;;;;;;;0.93;0.60;;;12.20;99.90;;;;;;6240537;28;20049;-74
2023/11/05 15:39:02;;;;;;;0.30;0.30;;;12.10;99.90;;;;;;6247722;28;20461;-75
2023/11/05 15:42:05;;;;;;;3.28;0.47;;;12.10;99.90;;;;;;6247751;28;20049;-75
2023/11/05 15:45:07;;;;;;;0.85;0.60;;;12.10;99.90;;;;;;6248016;28;20054;-75
2023/11/05 15:48:09;;;;;;;1.17;0.70;;;12.10;99.90;;;;;;6248792;28;20391;-74